Time;durP1;ratioP1;P1;durP2;ratioP2;P2;SDS_P1;SDS_P2;PMS_P1;PMS_P2;Temp;Humidity;BMP_temperature;BMP_pressure;BME280_temperature;BME280_humidity;BME280_pressure;Samples;Min_cycle;Max_cycle;Signal;HPM_P1;HPM_P2
2022/05/09 00:03:57;;;;;;;1.75;0.70;;;;;;;19.86;34.87;102615.47;16149818;19;129099;-50
2022/05/09 00:09:19;;;;;;;3.42;1.00;;;;;;;19.83;35.17;102605.66;16142107;19;129602;-50
2022/05/09 00:14:41;;;;;;;2.15;0.70;;;;;;;19.83;35.23;102599.22;16134238;19;129756;-51
2022/05/09 00:20:03;;;;;;;2.17;1.00;;;;;;;19.82;35.23;102611.41;16136816;19;129835;-47
2022/05/09 00:25:27;;;;;;;1.02;0.60;;;;;;;19.81;34.75;102595.81;16138520;19;129611;-45
2022/05/09 00:30:49;;;;;;;2.85;1.00;;;;;;;19.80;35.17;102594.13;16140776;19;130979;-45
2022/05/09 00:36:12;;;;;;;2.58;0.60;;;;;;;19.78;35.08;102585.13;16137032;19;131587;-43
2022/05/09 00:41:40;;;;;;;3.05;0.85;;;;;;;19.77;35.02;102591.75;16135251;19;131126;-48
2022/05/09 00:47:02;;;;;;;3.90;1.00;;;;;;;19.76;34.91;102590.88;16136923;19;130617;-47
2022/05/09 00:52:36;;;;;;;2.10;0.70;;;;;;;19.77;34.64;102586.22;16137217;19;129517;-47
2022/05/09 00:58:09;;;;;;;3.22;0.82;;;;;;;19.77;34.76;102583.44;16135784;19;129090;-50
2022/05/09 01:03:45;;;;;;;2.05;0.70;;;;;;;19.75;34.93;102578.09;16133891;19;129846;-44
2022/05/09 01:09:10;;;;;;;2.30;0.80;;;;;;;19.72;34.97;102572.09;16138334;19;129759;-48
2022/05/09 01:14:33;;;;;;;3.38;1.00;;;;;;;19.68;34.59;102569.78;16132750;19;129678;-46
2022/05/09 01:19:58;;;;;;;3.60;1.10;;;;;;;19.67;34.78;102565.28;16135078;19;130654;-44
2022/05/09 01:25:20;;;;;;;;;;;;;;;19.64;34.68;102564.81;16135132;19;129932;-43
2022/05/09 01:30:56;;;;;;;3.80;0.85;;;;;;;19.67;34.69;102567.19;16136220;19;129184;-44
2022/05/09 01:36:25;;;;;;;2.83;0.95;;;;;;;19.62;34.49;102559.50;16135236;19;130435;-45
2022/05/09 01:41:48;;;;;;;3.63;0.88;;;;;;;19.61;34.86;102551.41;16130718;19;129919;-45
2022/05/09 01:52:50;;;;;;;1.48;0.63;;;;;;;19.60;34.51;102560.78;16134103;19;129595;-43
2022/05/09 01:58:11;;;;;;;1.92;0.85;;;;;;;19.58;34.67;102558.22;16133660;19;130258;-43
2022/05/09 02:03:33;;;;;;;5.10;0.93;;;;;;;19.56;34.79;102557.59;16129176;19;130900;-45
2022/05/09 02:08:55;;;;;;;2.55;0.93;;;;;;;19.56;34.75;102562.28;16130162;19;129955;-46
2022/05/09 02:14:17;;;;;;;4.68;0.80;;;;;;;19.56;34.49;102559.50;16130972;19;129713;-45
2022/05/09 02:19:40;;;;;;;4.20;1.10;;;;;;;19.55;34.70;102555.00;16127328;19;130969;-43
2022/05/09 02:25:26;;;;;;;3.45;0.93;;;;;;;19.53;34.64;102560.78;16127201;19;130563;-43
2022/05/09 02:30:47;;;;;;;2.05;1.15;;;;;;;19.53;34.34;102560.78;16133109;19;129616;-43
2022/05/09 02:36:09;;;;;;;3.67;0.85;;;;;;;19.51;34.64;102557.38;16129536;19;129887;-44
2022/05/09 02:41:31;;;;;;;2.53;0.88;;;;;;;19.50;34.33;102552.88;16125354;19;129808;-45
2022/05/09 02:46:52;;;;;;;2.95;1.13;;;;;;;19.50;34.43;102550.09;16127427;19;129617;-45
2022/05/09 02:52:14;;;;;;;3.60;1.00;;;;;;;19.48;34.31;102547.53;16130383;19;131071;-45
2022/05/09 02:57:37;;;;;;;2.05;0.90;;;;;;;19.48;34.45;102549.47;16124086;19;130256;-46
2022/05/09 03:08:40;;;;;;;1.83;0.68;;;;;;;19.46;34.56;102544.13;16129188;19;130407;-44
2022/05/09 03:14:02;;;;;;;3.85;1.20;;;;;;;19.45;34.56;102536.88;16125381;19;130391;-44
2022/05/09 03:19:25;;;;;;;3.03;0.70;;;;;;;19.45;34.14;102533.22;16128370;19;130564;-43
2022/05/09 03:24:48;;;;;;;3.53;1.10;;;;;;;19.44;34.05;102537.09;16129289;19;129517;-45
2022/05/09 03:30:11;;;;;;;2.80;0.95;;;;;;;19.43;34.51;102533.44;16127879;19;129585;-44
2022/05/09 03:35:34;;;;;;;3.13;0.85;;;;;;;19.42;34.27;102531.72;16126544;19;130223;-44
2022/05/09 03:40:57;;;;;;;7.38;1.17;;;;;;;19.40;34.60;102533.03;16125442;19;130368;-43
2022/05/09 03:46:19;;;;;;;5.55;1.63;;;;;;;19.41;34.19;102531.94;16126234;19;130171;-47
2022/05/09 03:51:40;;;;;;;3.83;1.42;;;;;;;19.42;34.24;102530.88;16133780;19;129884;-44
2022/05/09 03:57:02;;;;;;;17.35;1.85;;;;;;;19.42;34.63;102530.88;16142145;19;130724;-46
2022/05/09 04:02:24;;;;;;;16.15;1.55;;;;;;;19.45;35.20;102525.75;16135628;19;131448;-45
2022/05/09 04:07:49;;;;;;;18.05;2.05;;;;;;;19.48;34.95;102530.03;16139212;19;130112;-46
2022/05/09 04:13:11;;;;;;;10.60;1.67;;;;;;;19.46;34.73;102529.38;16141730;19;131267;-46
2022/05/09 04:18:38;;;;;;;8.48;1.60;;;;;;;19.46;34.74;102523.81;16141875;19;128951;-49
2022/05/09 04:24:02;;;;;;;7.20;1.27;;;;;;;19.46;35.03;102521.06;16136930;19;130580;-47
2022/05/09 04:29:25;;;;;;;7.32;1.33;;;;;;;19.47;35.00;102522.75;16140709;19;130480;-45
2022/05/09 04:34:47;;;;;;;12.80;1.80;;;;;;;19.47;34.76;102518.09;16141798;19;129317;-45
2022/05/09 04:40:10;;;;;;;6.10;1.35;;;;;;;19.51;34.82;102512.94;16140268;19;129491;-48
2022/05/09 04:45:33;;;;;;;4.30;1.00;;;;;;;19.54;34.71;102518.09;16138582;19;129800;-49
2022/05/09 04:50:54;;;;;;;3.70;1.10;;;;;;;19.58;34.71;102516.56;16137491;19;130834;-47
2022/05/09 04:56:17;;;;;;;2.63;0.80;;;;;;;19.63;34.84;102516.78;16130701;19;129319;-47
2022/05/09 05:01:39;;;;;;;3.60;1.30;;;;;;;19.71;34.72;102514.84;16134661;19;130184;-49
2022/05/09 05:07:00;;;;;;;2.70;0.82;;;;;;;19.76;34.74;102521.47;16136686;19;130666;-45
2022/05/09 05:12:22;;;;;;;4.13;1.20;;;;;;;19.82;34.82;102525.31;16136627;19;129671;-46
2022/05/09 05:17:44;;;;;;;4.47;1.42;;;;;;;19.88;34.53;102523.63;16137485;19;130253;-48
2022/05/09 05:23:07;;;;;;;5.45;0.98;;;;;;;19.95;34.49;102518.88;16133513;19;130347;-49
2022/05/09 05:28:30;;;;;;;2.15;0.77;;;;;;;20.01;34.31;102519.97;16137425;19;129747;-47
2022/05/09 05:33:51;;;;;;;2.30;0.80;;;;;;;20.08;34.27;102518.03;16135930;19;129625;-46
2022/05/09 05:39:15;;;;;;;4.38;1.13;;;;;;;20.14;34.29;102514.41;16136130;19;129540;-45
2022/05/09 05:44:38;;;;;;;4.68;0.80;;;;;;;20.19;34.15;102520.13;16131353;19;129550;-45
2022/05/09 05:50:00;;;;;;;3.30;0.75;;;;;;;20.21;34.73;102518.00;16135683;19;129700;-49
2022/05/09 05:55:25;;;;;;;4.05;0.93;;;;;;;20.24;34.71;102514.78;16128160;19;130301;-46
2022/05/09 06:00:46;;;;;;;2.85;0.80;;;;;;;20.27;34.76;102525.47;16135010;19;129162;-46
2022/05/09 06:06:08;;;;;;;3.88;0.80;;;;;;;20.32;34.71;102523.94;16135010;19;129907;-43
2022/05/09 06:11:30;;;;;;;2.55;0.60;;;;;;;20.36;34.71;102519.66;16134278;19;129701;-46
2022/05/09 06:16:51;;;;;;;2.92;1.10;;;;;;;20.40;34.17;102520.94;16130804;19;129773;-49
2022/05/09 06:22:13;;;;;;;3.17;1.00;;;;;;;20.44;34.11;102516.63;16130621;19;129814;-44
2022/05/09 06:27:35;;;;;;;2.25;0.80;;;;;;;20.49;34.59;102507.66;16129958;19;132603;-44
2022/05/09 06:32:58;;;;;;;3.00;0.77;;;;;;;20.53;34.23;102515.31;16126451;19;129297;-47
2022/05/09 06:38:22;;;;;;;2.33;0.98;;;;;;;20.55;34.07;102513.19;16133139;19;128937;-47
2022/05/09 06:43:44;;;;;;;2.80;0.77;;;;;;;20.59;34.46;102514.44;16127900;19;130518;-48
2022/05/09 06:49:06;;;;;;;3.08;0.88;;;;;;;20.65;34.43;102517.41;16130309;19;130468;-46
2022/05/09 06:54:28;;;;;;;1.80;0.80;;;;;;;20.70;33.90;102509.25;16125622;19;129680;-44
2022/05/09 06:59:49;;;;;;;2.00;0.90;;;;;;;20.74;34.01;102513.28;16131175;19;130169;-48
2022/05/09 07:05:15;;;;;;;5.93;1.13;;;;;;;20.78;34.19;102500.69;16125738;19;129644;-47
2022/05/09 07:10:38;;;;;;;3.35;0.93;;;;;;;20.82;34.03;102507.50;16128455;19;130388;-43
2022/05/09 07:15:59;;;;;;;2.28;1.00;;;;;;;20.84;33.68;102502.56;16127561;19;129880;-47
2022/05/09 07:21:21;;;;;;;3.45;1.08;;;;;;;20.88;34.25;102505.75;16127131;19;130229;-47
2022/05/09 07:26:43;;;;;;;3.30;1.13;;;;;;;20.90;33.70;102510.03;16137724;19;130491;-48
2022/05/09 07:32:05;;;;;;;3.90;1.25;;;;;;;20.93;34.16;102511.50;16143452;19;129935;-45
2022/05/09 07:37:29;;;;;;;6.05;1.10;;;;;;;20.97;33.80;102515.56;16143413;19;130244;-44
2022/05/09 07:42:51;;;;;;;2.95;1.08;;;;;;;21.01;33.95;102513.16;16139587;19;128994;-47
2022/05/09 07:48:13;;;;;;;1.77;0.77;;;;;;;21.05;33.90;102511.63;16142915;19;129573;-46
2022/05/09 07:53:35;;;;;;;2.25;1.10;;;;;;;21.08;33.95;102521.47;16141776;19;131017;-50
2022/05/09 07:58:56;;;;;;;3.38;1.00;;;;;;;21.10;33.95;102517.38;16141834;19;129822;-47
2022/05/09 08:04:18;;;;;;;2.42;0.95;;;;;;;21.13;34.01;102518.84;16132931;19;130760;-46
2022/05/09 08:09:40;;;;;;;2.80;0.90;;;;;;;21.15;33.72;102511.13;16136509;19;129862;-48
2022/05/09 08:15:03;;;;;;;2.42;0.90;;;;;;;21.18;33.88;102514.31;16132022;19;129848;-44
2022/05/09 08:20:34;;;;;;;4.00;1.27;;;;;;;21.20;34.13;102516.91;16134829;19;129712;-47
2022/05/09 08:25:56;;;;;;;3.63;0.90;;;;;;;21.20;33.76;102514.94;16127363;19;130823;-47
2022/05/09 08:31:18;;;;;;;3.38;0.98;;;;;;;21.23;33.98;102513.66;16141965;19;129371;-47
2022/05/09 08:36:48;;;;;;;5.30;1.10;;;;;;;21.26;34.18;102509.56;16142132;19;129332;-47
2022/05/09 08:42:15;;;;;;;3.22;0.85;;;;;;;21.27;34.17;102512.13;16144341;19;130194;-47
2022/05/09 08:48:32;;;;;;;3.58;1.10;;;;;;;21.28;33.89;102499.06;16137078;19;129924;-47
2022/05/09 08:53:59;;;;;;;2.35;0.70;;;;;;;21.30;33.95;102505.22;16142047;19;129312;-45
2022/05/09 08:59:28;;;;;;;2.60;0.80;;;;;;;21.32;33.99;102489.16;16142628;19;128978;-45
2022/05/09 09:04:54;;;;;;;2.65;0.88;;;;;;;21.32;33.96;102489.16;16141491;19;129333;-48
2022/05/09 09:10:29;;;;;;;5.75;1.00;;;;;;;21.32;33.95;102484.47;16135467;19;130569;-44
2022/05/09 09:15:53;;;;;;;3.53;0.75;;;;;;;21.32;33.75;102478.03;16137082;19;130124;-49
2022/05/09 09:21:29;;;;;;;3.17;0.97;;;;;;;21.34;33.86;102481.44;16141436;19;129841;-45
2022/05/09 09:26:56;;;;;;;4.17;0.83;;;;;;;21.33;33.81;102479.72;16142592;19;129433;-48
2022/05/09 09:32:20;;;;;;;2.45;0.60;;;;;;;21.35;34.11;102472.00;16140334;19;129212;-49
2022/05/09 09:37:53;;;;;;;2.92;0.77;;;;;;;21.36;33.83;102468.16;16135386;19;129714;-50
2022/05/09 09:43:17;;;;;;;1.60;0.60;;;;;;;21.34;34.39;102460.03;16138637;19;129621;-47
2022/05/09 09:48:39;;;;;;;2.55;0.60;;;;;;;21.34;33.98;102451.69;16140257;19;129918;-45
2022/05/09 09:54:02;;;;;;;1.52;0.43;;;;;;;21.34;34.29;102457.25;16138416;19;130276;-48
2022/05/09 09:59:31;;;;;;;2.20;0.77;;;;;;;21.36;34.06;102451.44;16139932;19;129839;-44
2022/05/09 10:05:08;;;;;;;6.05;1.23;;;;;;;21.36;34.52;102437.53;16135141;19;130157;-47
2022/05/09 10:10:30;;;;;;;4.35;1.10;;;;;;;21.36;34.67;102440.31;16139863;19;129682;-46
2022/05/09 10:16:11;;;;;;;2.92;0.55;;;;;;;21.38;34.81;102427.03;16137829;19;129384;-43
2022/05/09 10:27:25;;;;;;;2.25;0.80;;;;;;;21.36;34.55;102427.22;16135098;19;129143;-51
2022/05/09 10:32:52;;;;;;;1.77;0.60;;;;;;;21.35;34.61;102428.31;16137475;19;129650;-44
2022/05/09 10:38:19;;;;;;;3.15;0.75;;;;;;;21.36;34.74;102412.47;16135196;19;129423;-44
2022/05/09 10:43:54;;;;;;;1.40;0.70;;;;;;;21.36;34.73;102415.25;16132674;19;129453;-43
2022/05/09 10:49:46;;;;;;;1.40;0.60;;;;;;;21.35;35.03;102405.22;16133039;19;130245;-44
2022/05/09 10:55:20;;;;;;;3.15;0.88;;;;;;;21.35;34.79;102399.63;16127799;19;130988;-50
2022/05/09 11:00:49;;;;;;;4.03;0.70;;;;;;;21.34;34.49;102398.81;16132824;19;129778;-44
2022/05/09 11:06:20;;;;;;;8.73;1.00;;;;;;;21.35;34.54;102388.50;16141689;19;129326;-48
2022/05/09 11:11:56;;;;;;;7.57;0.80;;;;;;;21.35;34.98;102383.78;16149666;19;128914;-44
2022/05/09 11:18:03;;;;;;;2.63;0.95;;;;;;;21.33;34.92;102368.38;16145838;19;129635;-46
2022/05/09 11:23:32;;;;;;;4.15;1.00;;;;;;;21.32;34.41;102367.56;16147939;19;129241;-46
2022/05/09 11:29:21;;;;;;;3.75;1.00;;;;;;;21.34;34.51;102358.97;16148881;19;129769;-49
2022/05/09 11:35:07;;;;;;;4.72;0.80;;;;;;;21.36;34.47;102362.38;16145052;19;129565;-46
2022/05/09 11:40:48;;;;;;;;;;;;;;;21.30;34.62;102363.28;16149602;19;130299;-48
2022/05/09 11:46:41;;;;;;;3.75;0.70;;;;;;;21.35;34.56;102355.94;16144514;19;129221;-47
2022/05/09 11:52:20;;;;;;;5.40;1.05;;;;;;;21.35;34.88;102349.53;16136999;19;130583;-44
2022/05/09 11:57:45;;;;;;;3.58;1.05;;;;;;;21.34;34.87;102343.13;16137234;19;131191;-45
2022/05/09 12:03:10;;;;;;;3.95;1.60;;;;;;;21.38;34.18;102349.06;16136765;19;129404;-48
2022/05/09 12:08:45;;;;;;;5.75;1.50;;;;;;;21.40;33.97;102341.34;16144211;19;130138;-49
2022/05/09 12:14:06;;;;;;;5.10;1.52;;;;;;;21.39;34.04;102336.88;16141893;19;129491;-47
2022/05/09 12:19:33;;;;;;;5.65;2.35;;;;;;;21.41;33.77;102326.34;16146253;19;130006;-45
2022/05/09 12:24:57;;;;;;;7.03;2.10;;;;;;;21.41;33.89;102318.00;16141214;19;130668;-48
2022/05/09 12:30:42;;;;;;;7.60;2.55;;;;;;;21.44;33.61;102313.88;16144777;19;128804;-47
2022/05/09 12:36:32;;;;;;;6.78;2.13;;;;;;;21.43;33.48;102299.09;16145292;19;129245;-48
2022/05/09 12:41:56;;;;;;;5.85;2.38;;;;;;;21.45;33.39;102293.31;16142865;19;128879;-48
2022/05/09 12:47:22;;;;;;;5.88;2.70;;;;;;;21.45;33.21;102290.53;16145351;19;129404;-44
2022/05/09 12:53:00;;;;;;;4.85;2.30;;;;;;;21.47;33.27;102282.81;16139032;19;129258;-46
2022/05/09 12:58:23;;;;;;;9.45;2.88;;;;;;;21.46;33.67;102279.16;16144364;19;130049;-44
2022/05/09 13:03:57;;;;;;;7.20;2.58;;;;;;;21.49;33.15;102256.47;16141248;19;131195;-49
2022/05/09 13:09:26;;;;;;;3.78;2.50;;;;;;;21.50;33.04;102265.66;16139655;19;130156;-46
2022/05/09 13:14:56;;;;;;;7.00;2.50;;;;;;;21.50;33.38;102258.16;16140587;19;130529;-48
2022/05/09 13:20:20;;;;;;;5.47;2.60;;;;;;;21.53;33.39;102254.06;16144472;19;130623;-47
2022/05/09 13:25:52;;;;;;;7.45;2.78;;;;;;;21.51;33.10;102247.84;16138669;19;129231;-45
2022/05/09 13:31:34;;;;;;;6.68;2.80;;;;;;;21.51;33.39;102245.94;16138834;19;129668;-44
2022/05/09 13:36:56;;;;;;;11.05;2.53;;;;;;;21.51;33.08;102232.03;16140621;19;129326;-47
2022/05/09 13:42:26;;;;;;;9.23;2.95;;;;;;;21.54;33.36;102230.69;16138825;19;129503;-46
2022/05/09 13:47:55;;;;;;;6.80;2.65;;;;;;;21.55;32.88;102214.81;16138381;19;129607;-40
2022/05/09 13:53:29;;;;;;;6.25;2.92;;;;;;;21.59;32.74;102207.69;16133132;19;129612;-43
2022/05/09 13:58:58;;;;;;;11.10;2.70;;;;;;;21.59;33.13;102210.50;16131375;19;130460;-41
2022/05/09 14:04:22;;;;;;;7.28;2.60;;;;;;;21.61;33.20;102216.69;16128111;19;129702;-43
2022/05/09 14:09:44;;;;;;;6.10;2.53;;;;;;;21.62;33.40;102198.88;16132843;19;130327;-41
2022/05/09 14:15:13;;;;;;;7.13;2.80;;;;;;;21.63;32.79;102190.28;16126317;19;131276;-44
2022/05/09 14:20:39;;;;;;;8.05;3.13;;;;;;;21.63;33.26;102181.94;16134620;19;129456;-43
2022/05/09 14:31:46;;;;;;;7.07;3.20;;;;;;;21.66;32.81;102172.28;16132477;19;130946;-44
2022/05/09 14:37:26;;;;;;;6.38;2.75;;;;;;;21.68;32.71;102164.50;16129631;19;129045;-41
2022/05/09 14:43:06;;;;;;;8.73;2.70;;;;;;;21.66;32.81;102155.56;16134218;19;129684;-41
2022/05/09 14:48:33;;;;;;;7.38;2.67;;;;;;;21.67;33.17;102151.66;16129593;19;129340;-41
2022/05/09 14:54:01;;;;;;;5.03;2.50;;;;;;;21.69;33.07;102146.72;16131671;19;130670;-44
2022/05/09 14:59:31;;;;;;;6.15;2.65;;;;;;;21.68;33.22;102142.22;16133005;19;129430;-44
2022/05/09 15:04:53;;;;;;;7.93;2.80;;;;;;;21.70;32.89;102128.09;16127466;19;129731;-40
2022/05/09 15:10:15;;;;;;;8.20;3.15;;;;;;;21.70;33.07;102117.78;16133355;19;129368;-41
2022/05/09 15:15:41;;;;;;;7.30;3.22;;;;;;;21.71;33.16;102116.69;16131297;19;129528;-41
2022/05/09 15:21:04;;;;;;;5.25;2.70;;;;;;;21.71;33.29;102104.72;16136612;19;129478;-43
2022/05/09 15:26:33;;;;;;;6.70;3.17;;;;;;;21.72;33.47;102101.69;16132002;19;129109;-40
2022/05/09 15:31:55;;;;;;;6.00;2.45;;;;;;;21.71;33.38;102097.19;16136074;19;129425;-42
2022/05/09 15:37:17;;;;;;;4.35;2.60;;;;;;;21.73;33.49;102091.38;16133442;19;129757;-41
2022/05/09 15:42:40;;;;;;;7.55;3.03;;;;;;;21.71;33.49;102074.91;16133606;19;130200;-46
2022/05/09 15:48:03;;;;;;;6.72;2.78;;;;;;;21.73;33.44;102078.31;16143340;19;130284;-44
2022/05/09 15:53:26;;;;;;;6.20;2.92;;;;;;;21.76;33.46;102076.97;16147334;19;129536;-43
2022/05/09 15:58:52;;;;;;;8.52;3.05;;;;;;;21.78;33.53;102070.09;16147364;19;129346;-42
2022/05/09 16:04:14;;;;;;;8.40;3.25;;;;;;;21.82;33.83;102065.72;16147882;19;129454;-41
2022/05/09 16:15:22;;;;;;;9.95;3.40;;;;;;;21.90;34.48;102063.69;16142868;19;129747;-40
2022/05/09 16:20:44;;;;;;;9.75;4.03;;;;;;;21.88;34.66;102058.34;16147127;19;129331;-40
2022/05/09 16:26:11;;;;;;;7.45;3.30;;;;;;;21.87;34.45;102056.63;16142167;19;129601;-40
2022/05/09 16:31:33;;;;;;;7.25;3.20;;;;;;;21.85;34.26;102057.97;16141276;19;129593;-40
2022/05/09 16:37:01;;;;;;;8.65;3.05;;;;;;;21.85;33.97;102056.03;16142441;19;129132;-40
2022/05/09 16:42:34;;;;;;;7.05;3.10;;;;;;;21.87;34.15;102058.59;16147792;19;129958;-41
2022/05/09 16:47:56;;;;;;;4.57;2.85;;;;;;;21.83;34.65;102061.00;16138543;19;129443;-41
2022/05/09 16:53:18;;;;;;;11.88;3.08;;;;;;;21.83;34.65;102059.06;16144896;19;129269;-41
2022/05/09 16:58:40;;;;;;;6.45;2.72;;;;;;;21.80;34.68;102045.59;16143091;19;129201;-42
2022/05/09 17:04:02;;;;;;;4.68;2.83;;;;;;;21.79;34.43;102049.47;16142267;19;129443;-42
2022/05/09 17:09:28;;;;;;;7.43;2.85;;;;;;;21.77;34.51;102048.03;16140808;19;128972;-41
2022/05/09 17:14:50;;;;;;;6.68;2.70;;;;;;;21.76;34.30;102043.56;16141990;19;129455;-42
2022/05/09 17:20:20;;;;;;;4.40;2.35;;;;;;;21.76;34.49;102040.75;16143193;19;129902;-44
2022/05/09 17:25:49;;;;;;;5.68;2.53;;;;;;;21.76;34.64;102038.84;16140945;19;129215;-44
2022/05/09 17:31:11;;;;;;;4.75;2.30;;;;;;;21.74;34.49;102035.44;16142236;19;129427;-40
2022/05/09 17:42:16;;;;;;;6.03;2.60;;;;;;;21.71;34.44;102024.78;16142521;19;129608;-40
2022/05/09 17:47:37;;;;;;;7.68;2.28;;;;;;;21.68;34.63;102025.25;16137355;19;130515;-42
2022/05/09 17:53:00;;;;;;;3.60;2.15;;;;;;;21.66;34.45;102021.88;16143029;19;130378;-41
2022/05/09 17:58:28;;;;;;;4.45;2.15;;;;;;;21.64;34.97;102021.28;16141118;19;129099;-40
2022/05/09 18:03:50;;;;;;;3.88;2.38;;;;;;;21.62;34.74;102015.09;16135015;19;130684;-40
2022/05/09 18:09:11;;;;;;;4.05;2.22;;;;;;;21.59;34.69;102019.22;16132860;19;129907;-41
2022/05/09 18:14:39;;;;;;;5.25;2.45;;;;;;;21.55;34.87;102014.34;16133633;19;129311;-41
2022/05/09 18:20:13;;;;;;;6.95;2.50;;;;;;;21.52;35.30;102010.09;16133622;19;129282;-42
2022/05/09 18:25:38;;;;;;;5.63;2.35;;;;;;;21.49;34.98;102022.59;16133637;19;129666;-41
2022/05/09 18:31:01;;;;;;;6.18;2.05;;;;;;;21.45;35.17;102021.31;16136108;19;129328;-40
2022/05/09 18:36:23;;;;;;;4.78;2.08;;;;;;;21.44;35.60;102021.56;16138474;19;129726;-41
2022/05/09 18:41:48;;;;;;;4.65;1.75;;;;;;;21.42;35.56;102016.22;16135318;19;129337;-42
2022/05/09 18:47:09;;;;;;;4.82;2.20;;;;;;;21.40;35.47;102017.56;16131276;19;129102;-43
2022/05/09 18:52:34;;;;;;;2.75;1.95;;;;;;;21.37;35.38;102018.88;16135765;19;129292;-42
2022/05/09 18:57:59;;;;;;;60.03;4.47;;;;;;;21.35;35.62;102032.19;16136959;19;130528;-42
2022/05/09 19:03:22;;;;;;;15.02;2.92;;;;;;;21.32;35.85;102027.09;16131812;19;130595;-41
2022/05/09 19:08:44;;;;;;;23.23;2.20;;;;;;;21.34;36.18;102038.84;16129044;19;129608;-40
2022/05/09 19:14:15;;;;;;;10.13;2.47;;;;;;;21.36;36.96;102031.94;16130798;19;130008;-40
2022/05/09 19:19:37;;;;;;;16.05;2.30;;;;;;;21.35;37.00;102041.38;16137513;19;129707;-40
2022/05/09 19:25:01;;;;;;;12.82;2.28;;;;;;;21.36;37.05;102042.25;16142119;19;129623;-39
2022/05/09 19:30:23;;;;;;;16.08;2.80;;;;;;;21.38;37.29;102056.78;16147163;19;129947;-40
2022/05/09 19:35:45;;;;;;;5.43;2.10;;;;;;;21.39;36.96;102061.25;16145077;19;129914;-44
2022/05/09 19:41:13;;;;;;;8.75;1.88;;;;;;;21.42;37.30;102059.94;16144860;19;131214;-46
2022/05/09 19:46:41;;;;;;;11.27;2.00;;;;;;;21.45;37.06;102070.59;16141457;19;130927;-42
2022/05/09 19:57:44;;;;;;;4.70;1.70;;;;;;;21.47;36.96;102062.88;16140824;19;129825;-40
2022/05/09 20:03:05;;;;;;;12.63;2.65;;;;;;;21.48;37.56;102065.41;16139803;19;129509;-41
2022/05/09 20:08:28;;;;;;;8.35;1.77;;;;;;;21.47;37.31;102062.88;16138609;19;130408;-43
2022/05/09 20:13:53;;;;;;;10.32;1.92;;;;;;;21.45;37.34;102077.00;16142242;19;131022;-44
2022/05/09 20:19:15;;;;;;;8.30;1.93;;;;;;;21.43;36.75;102079.16;16135373;19;130173;-40
2022/05/09 20:24:37;;;;;;;6.78;1.60;;;;;;;21.40;36.81;102088.00;16130694;19;130927;-41
2022/05/09 20:30:00;;;;;;;12.98;2.13;;;;;;;21.36;36.95;102081.22;16135044;19;129589;-44
2022/05/09 20:35:24;;;;;;;5.23;1.87;;;;;;;21.33;37.15;102095.59;16137005;19;132171;-41
2022/05/09 20:40:45;;;;;;;4.35;1.30;;;;;;;21.30;37.26;102090.50;16137615;19;130613;-41
2022/05/09 20:46:09;;;;;;;5.28;1.38;;;;;;;21.27;37.41;102093.78;16138013;19;131007;-41
2022/05/09 20:51:34;;;;;;;4.90;1.30;;;;;;;21.26;37.13;102097.66;16138285;19;130169;-41
2022/05/09 20:56:56;;;;;;;7.20;1.37;;;;;;;21.22;36.89;102091.72;16136690;19;129665;-44
2022/05/09 21:02:21;;;;;;;4.97;1.45;;;;;;;21.20;37.03;102093.88;16135304;19;130621;-40
2022/05/09 21:07:44;;;;;;;2.00;1.10;;;;;;;21.18;37.36;102082.94;16136528;19;130733;-42
2022/05/09 21:13:05;;;;;;;3.47;1.20;;;;;;;21.15;36.91;102077.88;16139024;19;129276;-40
2022/05/09 21:18:27;;;;;;;3.50;1.00;;;;;;;21.12;37.40;102075.56;16132098;19;130109;-40
2022/05/09 21:23:51;;;;;;;5.05;0.90;;;;;;;21.10;37.00;102063.81;16131724;19;129871;-42
2022/05/09 21:29:13;;;;;;;2.65;0.93;;;;;;;21.10;37.25;102060.19;16131296;19;129960;-40
2022/05/09 21:34:35;;;;;;;2.08;0.98;;;;;;;21.07;37.00;102058.72;16134798;19;129961;-42
2022/05/09 21:45:37;;;;;;;5.20;0.80;;;;;;;21.03;36.98;102057.50;16135294;19;130367;-40
2022/05/09 21:51:00;;;;;;;1.58;0.95;;;;;;;21.02;37.21;102059.41;16137641;19;130882;-41
2022/05/09 21:56:27;;;;;;;3.75;1.35;;;;;;;21.01;37.41;102049.38;16135709;19;130472;-42
2022/05/09 22:01:49;;;;;;;1.65;0.80;;;;;;;20.99;36.97;102051.53;16133043;19;130946;-41
2022/05/09 22:07:12;;;;;;;2.83;0.90;;;;;;;20.99;37.42;102047.91;16133288;19;130116;-41
2022/05/09 22:12:33;;;;;;;1.50;0.88;;;;;;;20.98;37.20;102049.00;16135649;19;129243;-43
2022/05/09 22:17:55;;;;;;;2.38;0.80;;;;;;;20.96;36.98;102052.03;16127967;19;130230;-40
2022/05/09 22:23:18;;;;;;;1.48;0.70;;;;;;;20.94;37.44;102045.84;16129106;19;129491;-46
2022/05/09 22:28:39;;;;;;;1.02;0.63;;;;;;;20.93;37.24;102046.06;16126978;19;129818;-43
2022/05/09 22:34:01;;;;;;;1.33;0.80;;;;;;;20.92;37.51;102050.78;16130812;19;129725;-40
2022/05/09 22:39:27;;;;;;;0.75;0.70;;;;;;;20.89;37.04;102052.13;16127217;19;129654;-40
2022/05/09 22:44:50;;;;;;;2.20;0.88;;;;;;;20.88;37.40;102044.00;16127352;19;129424;-40
2022/05/09 22:50:13;;;;;;;1.58;0.60;;;;;;;20.87;37.39;102036.72;16129762;19;129748;-42
2022/05/09 22:55:35;;;;;;;2.72;0.60;;;;;;;20.86;37.20;102035.91;16124774;19;130752;-41
2022/05/09 23:00:57;;;;;;;0.65;0.57;;;;;;;20.86;37.31;102043.41;16128000;19;130239;-41
2022/05/09 23:06:19;;;;;;;1.02;0.70;;;;;;;20.84;37.25;102029.72;16127760;19;129904;-41
2022/05/09 23:11:41;;;;;;;1.30;0.70;;;;;;;20.84;37.42;102026.09;16125850;19;129448;-45
2022/05/09 23:17:07;;;;;;;1.00;0.70;;;;;;;20.83;37.20;102019.66;16127874;19;129633;-47
2022/05/09 23:22:28;;;;;;;2.35;0.73;;;;;;;20.81;37.42;102007.91;16127661;19;129961;-42
2022/05/09 23:27:52;;;;;;;1.13;0.57;;;;;;;20.82;37.59;102006.84;16123412;19;129705;-48
2022/05/09 23:33:22;;;;;;;1.10;0.60;;;;;;;20.81;36.96;101994.03;16124665;19;129749;-47
2022/05/09 23:38:43;;;;;;;0.80;0.73;;;;;;;20.79;37.43;101990.66;16126588;19;130525;-48
2022/05/09 23:44:06;;;;;;;1.15;0.65;;;;;;;20.77;37.08;101986.38;16125897;19;130639;-46
2022/05/09 23:49:31;;;;;;;1.05;0.50;;;;;;;20.76;37.44;101991.13;16121709;19;129727;-42
2022/05/09 23:54:53;;;;;;;3.13;0.90;;;;;;;20.75;37.52;101983.81;16123966;19;130195;-47
